Time;durP1;ratioP1;P1;durP2;ratioP2;P2;SDS_P1;SDS_P2;PMS_P1;PMS_P2;Temp;Humidity;BMP_temperature;BMP_pressure;BME280_temperature;BME280_humidity;BME280_pressure;Samples;Min_cycle;Max_cycle;Signal;HPM_P1;HPM_P2
2023/01/15 00:01:30;;;;;;;8.83;3.57;;;10.20;99.90;;;;;;5080392;28;20227;-72
2023/01/15 00:03:57;;;;;;;3.53;2.37;;;10.20;99.90;;;;;;5077817;28;20295;-69
2023/01/15 00:06:24;;;;;;;4.63;3.37;;;10.20;99.90;;;;;;5073261;28;20459;-72
2023/01/15 00:08:50;;;;;;;6.43;3.23;;;10.20;99.90;;;;;;5064758;28;20449;-72
2023/01/15 00:11:17;;;;;;;3.40;2.80;;;10.20;99.90;;;;;;5076446;28;20483;-73
2023/01/15 00:13:43;;;;;;;10.53;4.07;;;10.20;99.90;;;;;;5077359;28;20469;-73
2023/01/15 00:16:20;;;;;;;5.03;3.03;;;10.30;99.90;;;;;;5068307;28;20450;-72
2023/01/15 00:18:54;;;;;;;12.17;3.73;;;10.20;99.90;;;;;;5069825;28;20487;-73
2023/01/15 00:21:21;;;;;;;6.00;3.63;;;10.20;99.90;;;;;;5065350;28;20567;-72
2023/01/15 00:29:17;;;;;;;6.40;3.63;;;10.20;99.90;;;;;;5093563;28;20444;-72
2023/01/15 00:31:51;;;;;;;8.50;3.40;;;10.20;99.90;;;;;;5101707;28;20460;-73
2023/01/15 00:34:16;;;;;;;7.47;3.30;;;10.20;99.90;;;;;;5082043;28;20318;-73
2023/01/15 00:36:43;;;;;;;4.53;2.60;;;10.20;99.90;;;;;;5089565;28;20453;-72
2023/01/15 00:39:09;;;;;;;7.27;4.40;;;10.20;99.90;;;;;;5081294;28;20453;-72
2023/01/15 00:41:34;;;;;;;8.40;2.27;;;10.20;99.90;;;;;;5072922;28;20254;-73
2023/01/15 00:44:01;;;;;;;3.40;2.00;;;10.20;99.90;;;;;;5071235;28;20302;-72
2023/01/15 00:46:27;;;;;;;1.30;1.20;;;10.10;99.90;;;;;;5064559;28;20547;-73
2023/01/15 00:48:52;;;;;;;9.30;4.30;;;10.10;99.90;;;;;;5065065;28;20227;-73
2023/01/15 00:51:18;;;;;;;4.33;3.30;;;10.10;99.90;;;;;;5066143;28;20234;-72
2023/01/15 00:53:44;;;;;;;5.33;2.70;;;10.10;99.90;;;;;;5089746;28;20264;-72
2023/01/15 00:56:09;;;;;;;5.77;2.90;;;10.10;99.90;;;;;;5056231;28;20596;-73
2023/01/15 00:58:35;;;;;;;4.20;2.40;;;10.10;99.90;;;;;;5041231;28;20305;-72
2023/01/15 01:01:01;;;;;;;5.57;2.10;;;10.10;99.90;;;;;;5063796;28;21053;-72
2023/01/15 01:03:27;;;;;;;3.13;1.57;;;10.10;99.90;;;;;;5070531;28;20229;-73
2023/01/15 01:05:58;;;;;;;2.87;1.40;;;10.00;99.90;;;;;;5088633;28;20607;-73
2023/01/15 01:08:23;;;;;;;2.37;1.20;;;10.10;99.90;;;;;;5066906;28;20579;-73
2023/01/15 01:10:49;;;;;;;9.70;2.93;;;10.10;99.90;;;;;;5083121;28;20540;-72
2023/01/15 01:13:15;;;;;;;6.13;2.20;;;10.00;99.90;;;;;;5093267;28;20251;-72
2023/01/15 01:15:40;;;;;;;1.43;1.30;;;10.00;99.90;;;;;;5108683;28;20210;-73
2023/01/15 01:18:06;;;;;;;1.47;1.00;;;10.00;99.90;;;;;;5083002;28;20210;-72
2023/01/15 01:20:32;;;;;;;2.20;0.90;;;9.90;99.90;;;;;;5086676;28;20234;-72
2023/01/15 01:22:58;;;;;;;2.83;0.93;;;9.90;99.90;;;;;;5085912;28;20238;-72
2023/01/15 01:25:23;;;;;;;3.53;1.50;;;9.90;99.90;;;;;;5052784;28;20453;-73
2023/01/15 01:27:49;;;;;;;1.50;1.37;;;9.90;99.90;;;;;;5079281;28;20722;-72
2023/01/15 01:30:15;;;;;;;1.17;0.77;;;9.90;99.90;;;;;;5072531;28;20262;-73
2023/01/15 01:32:44;;;;;;;3.43;1.50;;;9.90;99.90;;;;;;5105887;28;20222;-72
2023/01/15 01:35:10;;;;;;;1.63;1.53;;;9.80;99.90;;;;;;5088248;28;20309;-73
2023/01/15 01:37:36;;;;;;;1.70;1.40;;;9.80;99.90;;;;;;5087898;28;20552;-72
2023/01/15 01:40:03;;;;;;;3.97;1.30;;;9.80;99.90;;;;;;5093349;28;20218;-72
2023/01/15 01:42:29;;;;;;;1.43;0.60;;;9.70;99.90;;;;;;5079690;28;20438;-73
2023/01/15 01:45:00;;;;;;;1.07;0.97;;;9.70;99.90;;;;;;5051077;28;20461;-73
2023/01/15 01:47:27;;;;;;;1.00;0.80;;;9.70;99.90;;;;;;5098815;28;20210;-72
2023/01/15 01:50:07;;;;;;;0.73;0.50;;;9.60;99.90;;;;;;5101729;28;20524;-72
2023/01/15 01:52:43;;;;;;;0.70;0.70;;;9.60;99.90;;;;;;5089285;28;20453;-73
2023/01/15 01:55:10;;;;;;;4.53;1.13;;;9.60;99.90;;;;;;5069738;28;20484;-72
2023/01/15 01:57:38;;;;;;;6.10;1.40;;;9.50;99.90;;;;;;5058774;28;20443;-73
2023/01/15 02:00:05;;;;;;;2.30;1.10;;;9.50;99.90;;;;;;5045357;28;20454;-72
2023/01/15 02:02:41;;;;;;;0.90;0.73;;;9.50;99.90;;;;;;5070407;28;20968;-73
2023/01/15 02:05:08;;;;;;;1.60;0.97;;;9.40;99.90;;;;;;5071534;28;20453;-73
2023/01/15 02:07:34;;;;;;;1.30;1.00;;;9.40;99.90;;;;;;5081696;28;20437;-73
2023/01/15 02:10:00;;;;;;;1.20;0.87;;;9.40;99.90;;;;;;5092346;28;20804;-72
2023/01/15 02:12:36;;;;;;;0.50;0.50;;;9.40;99.90;;;;;;5091352;28;20442;-73
2023/01/15 02:15:08;;;;;;;1.43;0.80;;;9.40;99.90;;;;;;5075672;28;20307;-72
2023/01/15 02:17:40;;;;;;;1.27;0.90;;;9.50;99.90;;;;;;5073467;28;20452;-72
2023/01/15 02:20:16;;;;;;;0.50;0.40;;;9.50;99.90;;;;;;5059595;28;20537;-73
2023/01/15 02:23:07;;;;;;;0.70;0.50;;;9.40;99.90;;;;;;5069670;28;20962;-72
2023/01/15 02:25:53;;;;;;;0.70;0.40;;;9.40;99.90;;;;;;5070978;28;20451;-73
2023/01/15 02:28:26;;;;;;;0.80;0.40;;;9.50;99.90;;;;;;5074565;28;20450;-72
2023/01/15 02:31:20;;;;;;;0.40;0.30;;;9.50;99.90;;;;;;5074086;28;20458;-72
2023/01/15 02:34:06;;;;;;;0.40;0.30;;;9.40;99.90;;;;;;5073080;28;21046;-73
2023/01/15 02:36:37;;;;;;;0.50;0.40;;;9.40;99.90;;;;;;5109233;27;20518;-72
2023/01/15 02:39:08;;;;;;;0.40;0.30;;;9.20;99.90;;;;;;5087828;28;20483;-72
2023/01/15 02:41:39;;;;;;;0.37;0.30;;;9.10;99.90;;;;;;5082560;28;20452;-72
2023/01/15 02:44:07;;;;;;;0.40;0.30;;;9.10;99.90;;;;;;5071347;28;20534;-72
2023/01/15 02:46:36;;;;;;;0.40;0.30;;;9.10;99.90;;;;;;5103096;28;20489;-73
2023/01/15 02:49:10;;;;;;;1.57;0.47;;;9.00;99.90;;;;;;5075404;28;20453;-71
2023/01/15 02:51:43;;;;;;;0.30;0.30;;;9.00;99.90;;;;;;5096764;28;20990;-71
2023/01/15 02:54:14;;;;;;;0.40;0.40;;;9.00;99.90;;;;;;5091677;28;20468;-72
2023/01/15 02:56:43;;;;;;;0.40;0.30;;;8.90;99.90;;;;;;5074040;28;20453;-72
2023/01/15 02:59:21;;;;;;;0.30;0.30;;;8.80;99.90;;;;;;5088761;28;20449;-72
2023/01/15 03:01:54;;;;;;;0.30;0.30;;;8.70;99.90;;;;;;5078894;28;20875;-72
2023/01/15 03:04:46;;;;;;;0.40;0.30;;;8.70;99.90;;;;;;5085447;28;20465;-72
2023/01/15 03:07:26;;;;;;;0.40;0.30;;;8.70;99.90;;;;;;5078847;28;20541;-72
2023/01/15 03:09:55;;;;;;;0.40;0.30;;;8.60;99.90;;;;;;5058393;28;20453;-72
2023/01/15 03:13:02;;;;;;;0.30;0.30;;;8.60;99.90;;;;;;5067852;28;20507;-72
2023/01/15 03:18:31;;;;;;;0.40;0.30;;;8.40;99.90;;;;;;5085283;28;20437;-72
2023/01/15 03:21:02;;;;;;;0.40;0.30;;;8.30;99.90;;;;;;5060258;28;20560;-72
2023/01/15 03:23:29;;;;;;;0.30;0.30;;;8.20;99.90;;;;;;5068401;28;20981;-73
2023/01/15 03:25:55;;;;;;;1.60;0.30;;;8.10;99.90;;;;;;5057890;28;20456;-72
2023/01/15 03:28:25;;;;;;;0.40;0.30;;;8.20;99.90;;;;;;5067841;28;20446;-72
2023/01/15 03:30:51;;;;;;;0.30;0.30;;;8.10;99.90;;;;;;5091874;28;20218;-72
2023/01/15 03:33:18;;;;;;;0.50;0.40;;;8.10;99.90;;;;;;5085770;28;20461;-72
2023/01/15 03:35:51;;;;;;;1.13;0.40;;;8.00;99.90;;;;;;5074610;28;20440;-72
2023/01/15 03:38:34;;;;;;;0.60;0.27;;;7.90;99.90;;;;;;5066961;28;20662;-72
2023/01/15 03:41:08;;;;;;;1.67;0.40;;;7.90;99.90;;;;;;5056367;28;20564;-72
2023/01/15 03:44:04;;;;;;;0.70;0.37;;;7.90;99.90;;;;;;5064744;28;20456;-72
2023/01/15 03:47:07;;;;;;;0.40;0.30;;;8.00;99.90;;;;;;5067272;28;20476;-72
2023/01/15 03:49:46;;;;;;;0.93;0.43;;;7.90;99.90;;;;;;5088265;28;20488;-73
2023/01/15 03:52:29;;;;;;;0.40;0.30;;;7.80;99.90;;;;;;5076604;28;20474;-72
2023/01/15 03:55:03;;;;;;;0.40;0.30;;;7.80;99.90;;;;;;5107028;28;20440;-72
2023/01/15 03:57:37;;;;;;;0.40;0.30;;;7.70;99.90;;;;;;5070403;28;20447;-72
2023/01/15 04:00:29;;;;;;;0.50;0.40;;;7.70;99.90;;;;;;5038918;28;20467;-72
2023/01/15 04:03:00;;;;;;;0.40;0.40;;;7.60;99.90;;;;;;5078076;28;20441;-70
2023/01/15 04:05:31;;;;;;;0.30;0.20;;;7.70;99.90;;;;;;5089688;28;20445;-72
2023/01/15 04:07:58;;;;;;;0.30;0.30;;;7.70;99.90;;;;;;5071516;28;20507;-72
2023/01/15 04:10:24;;;;;;;0.40;0.30;;;7.60;99.90;;;;;;5072871;28;20459;-72
2023/01/15 04:12:50;;;;;;;0.40;0.30;;;7.60;99.90;;;;;;5072822;28;20453;-73
2023/01/15 04:15:18;;;;;;;0.30;0.30;;;7.50;99.90;;;;;;5089679;28;20479;-71
2023/01/15 04:17:43;;;;;;;0.40;0.37;;;7.50;99.90;;;;;;5069222;28;20485;-72
2023/01/15 04:20:11;;;;;;;0.53;0.40;;;7.50;99.90;;;;;;5065134;28;21031;-72
2023/01/15 04:22:40;;;;;;;0.80;0.40;;;7.60;99.90;;;;;;5069825;28;20706;-72
2023/01/15 04:25:06;;;;;;;0.30;0.30;;;7.60;99.90;;;;;;5063680;28;20451;-72
2023/01/15 04:27:32;;;;;;;0.40;0.30;;;7.60;99.90;;;;;;5083767;28;20279;-72
2023/01/15 04:29:58;;;;;;;0.43;0.30;;;7.60;99.90;;;;;;5095131;28;20538;-72
2023/01/15 04:32:23;;;;;;;0.50;0.40;;;7.60;99.90;;;;;;5088628;28;20292;-72
2023/01/15 04:34:49;;;;;;;0.50;0.30;;;7.50;99.90;;;;;;5077867;28;20314;-72
2023/01/15 04:37:16;;;;;;;0.67;0.30;;;7.60;99.90;;;;;;5093843;28;20224;-72
2023/01/15 04:39:42;;;;;;;0.37;0.30;;;7.60;99.90;;;;;;5100674;27;20225;-72
2023/01/15 04:44:57;;;;;;;0.50;0.30;;;7.60;99.90;;;;;;5083483;28;20352;-72
2023/01/15 04:47:23;;;;;;;0.83;0.33;;;7.60;99.90;;;;;;5078013;28;20992;-72
2023/01/15 04:49:49;;;;;;;0.40;0.30;;;7.70;99.90;;;;;;5088952;28;20214;-72
2023/01/15 04:52:15;;;;;;;0.40;0.37;;;7.70;99.90;;;;;;5083294;28;20231;-73
2023/01/15 04:54:42;;;;;;;0.30;0.20;;;7.70;99.90;;;;;;5083321;28;21226;-72
2023/01/15 04:57:07;;;;;;;0.30;0.30;;;7.70;99.90;;;;;;5047329;28;20529;-72
2023/01/15 04:59:33;;;;;;;0.40;0.30;;;7.70;99.90;;;;;;5083661;28;20218;-73
2023/01/15 05:01:59;;;;;;;0.40;0.30;;;7.80;99.90;;;;;;5088620;28;20275;-72
2023/01/15 05:04:25;;;;;;;0.30;0.20;;;7.80;99.90;;;;;;5087884;28;20587;-72
2023/01/15 05:06:52;;;;;;;0.30;0.20;;;7.80;99.90;;;;;;5087941;28;20271;-73
2023/01/15 05:09:17;;;;;;;0.30;0.20;;;7.80;99.90;;;;;;5087088;28;20223;-73
2023/01/15 05:11:43;;;;;;;0.30;0.20;;;7.70;99.90;;;;;;5058950;28;20461;-73
2023/01/15 05:14:09;;;;;;;0.40;0.30;;;7.70;99.90;;;;;;5061191;28;20226;-72
2023/01/15 05:16:37;;;;;;;0.30;0.30;;;7.60;99.90;;;;;;5089914;28;20218;-72
2023/01/15 05:19:06;;;;;;;0.30;0.20;;;7.50;99.90;;;;;;5090203;28;20742;-73
2023/01/15 05:21:34;;;;;;;0.30;0.30;;;7.60;99.90;;;;;;5090088;28;20544;-72
2023/01/15 05:24:04;;;;;;;0.40;0.30;;;7.60;99.90;;;;;;5078163;28;20452;-71
2023/01/15 05:26:31;;;;;;;0.30;0.30;;;7.50;99.90;;;;;;5087961;28;20480;-72
2023/01/15 05:28:58;;;;;;;0.40;0.30;;;7.50;99.90;;;;;;5089872;28;20456;-72
2023/01/15 05:31:25;;;;;;;0.53;0.40;;;7.60;99.90;;;;;;5091222;28;20465;-73
2023/01/15 05:33:53;;;;;;;0.30;0.30;;;7.60;99.90;;;;;;5096797;28;20448;-73
2023/01/15 05:36:21;;;;;;;0.67;0.67;;;7.70;99.90;;;;;;5088517;28;20444;-73
2023/01/15 05:38:47;;;;;;;0.30;0.30;;;7.60;99.90;;;;;;5092609;28;20459;-72
2023/01/15 05:44:06;;;;;;;0.40;0.30;;;7.60;99.90;;;;;;5065322;28;20211;-72
2023/01/15 05:46:36;;;;;;;0.30;0.20;;;7.50;99.90;;;;;;5082549;28;20482;-72
2023/01/15 05:49:04;;;;;;;0.30;0.30;;;7.50;99.90;;;;;;5060997;28;20481;-72
2023/01/15 05:51:30;;;;;;;0.30;0.30;;;7.30;99.90;;;;;;5077800;28;20473;-72
2023/01/15 05:53:56;;;;;;;0.30;0.20;;;7.40;99.90;;;;;;5071930;28;20514;-72
2023/01/15 05:56:23;;;;;;;1.37;0.30;;;7.40;99.90;;;;;;5055366;28;20253;-72
2023/01/15 05:58:48;;;;;;;0.40;0.30;;;7.50;99.90;;;;;;5072168;28;20442;-72
2023/01/15 06:01:14;;;;;;;1.67;0.40;;;7.60;99.90;;;;;;5071253;28;20453;-72
2023/01/15 06:03:40;;;;;;;1.03;0.50;;;7.60;99.90;;;;;;5070086;28;20220;-72
2023/01/15 06:06:06;;;;;;;0.50;0.30;;;7.70;99.90;;;;;;5072158;28;20215;-73
2023/01/15 06:08:32;;;;;;;0.40;0.30;;;7.70;99.90;;;;;;5072613;28;20274;-72
2023/01/15 06:10:58;;;;;;;0.40;0.40;;;7.80;99.90;;;;;;5072166;28;21087;-72
2023/01/15 06:13:23;;;;;;;0.30;0.30;;;7.80;99.90;;;;;;5055855;28;20241;-72
2023/01/15 06:15:49;;;;;;;0.37;0.30;;;7.70;99.90;;;;;;5062681;28;20266;-72
2023/01/15 06:18:15;;;;;;;0.30;0.30;;;7.70;99.90;;;;;;5057265;28;20238;-72
2023/01/15 06:20:41;;;;;;;0.40;0.30;;;7.70;99.90;;;;;;5078019;28;20219;-72
2023/01/15 06:23:08;;;;;;;0.30;0.30;;;7.80;99.90;;;;;;5092950;28;20207;-72
2023/01/15 06:25:35;;;;;;;0.57;0.40;;;7.80;99.90;;;;;;5085519;28;20541;-72
2023/01/15 06:28:06;;;;;;;0.47;0.40;;;7.80;99.90;;;;;;5072419;28;20461;-72
2023/01/15 06:30:33;;;;;;;0.67;0.67;;;7.80;99.90;;;;;;5074082;28;20488;-72
2023/01/15 06:32:59;;;;;;;3.33;0.60;;;7.80;99.90;;;;;;5069443;28;20465;-71
2023/01/15 06:35:25;;;;;;;0.50;0.40;;;7.80;99.90;;;;;;5102874;28;20454;-72
2023/01/15 06:37:51;;;;;;;0.77;0.40;;;7.60;99.90;;;;;;5074821;28;20445;-72
2023/01/15 06:40:17;;;;;;;0.63;0.40;;;7.60;99.90;;;;;;5091837;28;20223;-72
2023/01/15 06:48:19;;;;;;;1.07;0.40;;;7.40;99.90;;;;;;5070320;28;20442;-72
2023/01/15 06:50:45;;;;;;;0.40;0.30;;;7.40;99.90;;;;;;5071352;28;20988;-72
2023/01/15 06:53:12;;;;;;;0.40;0.30;;;7.40;99.90;;;;;;5078695;28;20254;-72
2023/01/15 06:55:38;;;;;;;0.30;0.20;;;7.30;99.90;;;;;;5081687;28;20287;-72
2023/01/15 06:58:03;;;;;;;0.40;0.30;;;7.40;99.90;;;;;;5067636;28;20477;-72
2023/01/15 07:00:29;;;;;;;0.30;0.30;;;7.30;99.90;;;;;;5089690;28;20252;-72
2023/01/15 07:02:55;;;;;;;0.30;0.30;;;7.00;99.90;;;;;;5091203;28;20219;-72
2023/01/15 07:05:20;;;;;;;0.60;0.40;;;6.90;99.90;;;;;;5083779;28;20261;-73
2023/01/15 07:07:46;;;;;;;0.50;0.40;;;6.90;99.90;;;;;;5069558;28;20222;-72
2023/01/15 07:10:12;;;;;;;0.40;0.30;;;6.80;99.90;;;;;;5052114;28;20235;-72
2023/01/15 07:12:37;;;;;;;0.30;0.30;;;6.90;99.90;;;;;;5064674;28;20262;-72
2023/01/15 07:15:03;;;;;;;0.40;0.30;;;6.80;99.90;;;;;;5082684;28;20211;-72
2023/01/15 07:17:29;;;;;;;0.60;0.37;;;6.60;99.90;;;;;;5051639;28;20624;-72
2023/01/15 07:19:54;;;;;;;1.53;0.40;;;6.60;99.90;;;;;;5064643;28;20450;-72
2023/01/15 07:22:20;;;;;;;0.80;0.43;;;6.70;99.90;;;;;;5074149;28;20276;-72
2023/01/15 07:24:46;;;;;;;0.50;0.40;;;6.70;99.90;;;;;;5059402;28;20272;-72
2023/01/15 07:27:11;;;;;;;0.40;0.40;;;6.70;99.90;;;;;;5074861;28;20298;-71
2023/01/15 07:29:37;;;;;;;0.70;0.70;;;6.60;99.90;;;;;;5070614;28;20215;-72
2023/01/15 07:32:03;;;;;;;1.00;0.80;;;6.60;99.90;;;;;;5081130;28;20234;-73
2023/01/15 07:34:28;;;;;;;1.60;1.20;;;6.70;99.90;;;;;;5070354;28;20267;-72
2023/01/15 07:36:54;;;;;;;1.23;0.70;;;6.60;99.90;;;;;;5054196;28;20264;-73
2023/01/15 07:39:20;;;;;;;0.70;0.70;;;6.70;99.90;;;;;;5071347;28;20253;-73
2023/01/15 07:50:09;;;;;;;2.07;1.87;;;6.40;99.90;;;;;;5087674;28;20516;-72
2023/01/15 07:52:34;;;;;;;1.43;1.33;;;6.50;99.90;;;;;;5103820;27;20456;-72
2023/01/15 07:55:00;;;;;;;0.77;0.77;;;6.60;99.90;;;;;;5091748;28;20468;-72
2023/01/15 07:57:26;;;;;;;0.80;0.80;;;6.50;99.90;;;;;;5090182;28;20275;-72
2023/01/15 07:59:51;;;;;;;1.77;1.67;;;6.30;99.90;;;;;;5090324;28;20215;-72
2023/01/15 08:02:17;;;;;;;0.87;0.87;;;6.20;99.90;;;;;;5080378;28;20226;-72
2023/01/15 08:04:43;;;;;;;1.40;1.30;;;6.20;99.90;;;;;;5060546;28;20269;-72
2023/01/15 08:07:09;;;;;;;0.80;0.80;;;6.20;99.90;;;;;;5050054;28;20269;-71
2023/01/15 08:09:35;;;;;;;0.80;0.63;;;6.20;99.90;;;;;;5065733;28;20540;-72
2023/01/15 08:17:51;;;;;;;2.50;2.30;;;6.20;99.90;;;;;;5067807;28;20449;-72
2023/01/15 08:20:22;;;;;;;2.20;1.87;;;6.20;99.90;;;;;;5065525;28;20509;-72
2023/01/15 08:22:48;;;;;;;3.87;3.20;;;6.30;99.90;;;;;;5065232;28;20442;-72
2023/01/15 08:25:17;;;;;;;2.93;2.33;;;6.40;99.90;;;;;;5068649;28;20537;-72
2023/01/15 08:27:43;;;;;;;1.90;1.80;;;6.20;99.90;;;;;;5080551;28;20320;-72
2023/01/15 08:30:13;;;;;;;7.07;5.00;;;6.10;99.90;;;;;;5083092;28;20469;-72
2023/01/15 08:32:39;;;;;;;8.50;7.30;;;6.00;99.90;;;;;;5084392;28;21063;-72
2023/01/15 08:35:05;;;;;;;4.23;3.80;;;6.00;99.90;;;;;;5075714;28;20491;-72
2023/01/15 08:37:31;;;;;;;1.83;1.47;;;6.00;99.90;;;;;;5057977;28;20365;-73
2023/01/15 08:39:56;;;;;;;1.33;1.23;;;5.90;99.90;;;;;;5055632;28;20563;-72
2023/01/15 08:42:22;;;;;;;0.80;0.80;;;5.90;99.90;;;;;;5067927;28;20362;-73
2023/01/15 08:44:48;;;;;;;1.67;1.57;;;5.90;99.90;;;;;;5064854;28;20239;-72
2023/01/15 08:47:15;;;;;;;1.00;1.00;;;5.80;99.90;;;;;;5066705;28;20222;-72
2023/01/15 08:49:41;;;;;;;2.63;2.43;;;5.90;99.90;;;;;;5069076;28;20464;-72
2023/01/15 08:52:07;;;;;;;1.07;1.07;;;5.80;99.90;;;;;;5054160;28;20472;-72
2023/01/15 08:54:32;;;;;;;2.07;1.97;;;5.80;99.90;;;;;;5080173;28;20714;-72
2023/01/15 08:56:59;;;;;;;1.20;1.10;;;5.90;99.90;;;;;;5086456;28;20211;-72
2023/01/15 08:59:25;;;;;;;1.53;1.43;;;5.80;99.90;;;;;;5069221;28;20271;-72
2023/01/15 09:01:50;;;;;;;2.10;2.00;;;5.90;99.90;;;;;;5079944;28;20462;-72
2023/01/15 09:04:19;;;;;;;2.00;1.90;;;5.80;99.90;;;;;;5088004;28;20480;-72
2023/01/15 09:06:46;;;;;;;0.87;0.87;;;5.80;99.90;;;;;;5079082;28;20695;-72
2023/01/15 09:09:12;;;;;;;0.50;0.40;;;5.80;99.90;;;;;;5078783;28;20464;-71
2023/01/15 09:11:39;;;;;;;0.50;0.50;;;5.90;99.90;;;;;;5067106;28;21117;-72
2023/01/15 09:14:06;;;;;;;0.40;0.40;;;5.80;99.90;;;;;;5076379;28;20478;-72
2023/01/15 09:16:33;;;;;;;0.50;0.50;;;5.80;99.90;;;;;;5069578;28;20455;-72
2023/01/15 09:18:59;;;;;;;0.73;0.50;;;5.80;99.90;;;;;;5087847;28;20454;-72
2023/01/15 09:21:25;;;;;;;10.67;7.37;;;5.80;99.90;;;;;;5088039;28;20456;-72
2023/01/15 09:23:50;;;;;;;5.40;4.77;;;5.80;99.90;;;;;;5073502;28;20225;-72
2023/01/15 09:26:34;;;;;;;2.43;2.23;;;5.90;99.90;;;;;;5060336;28;20268;-72
2023/01/15 09:29:02;;;;;;;3.50;2.50;;;5.90;99.90;;;;;;5073980;28;20225;-72
2023/01/15 09:31:28;;;;;;;1.90;1.80;;;5.80;99.90;;;;;;5088140;28;20828;-72
2023/01/15 09:33:54;;;;;;;1.17;1.10;;;5.80;99.90;;;;;;5086430;28;20553;-72
2023/01/15 09:36:29;;;;;;;1.47;1.00;;;5.70;99.90;;;;;;5088228;28;20515;-72
2023/01/15 09:38:55;;;;;;;1.47;1.37;;;5.70;99.90;;;;;;5062417;28;20222;-72
2023/01/15 09:44:24;;;;;;;2.80;1.73;;;5.80;99.90;;;;;;5060067;28;20453;-72
2023/01/15 09:47:17;;;;;;;0.80;0.80;;;5.80;99.90;;;;;;5058835;28;20445;-72
2023/01/15 09:50:20;;;;;;;1.73;1.63;;;5.70;99.90;;;;;;5078725;28;20553;-72
2023/01/15 09:52:48;;;;;;;4.50;4.10;;;5.60;99.90;;;;;;5060145;28;20454;-72
2023/01/15 09:55:23;;;;;;;3.63;2.40;;;5.60;99.90;;;;;;5067614;28;20967;-72
2023/01/15 09:57:53;;;;;;;1.27;1.17;;;5.60;99.90;;;;;;5068171;28;20866;-72
2023/01/15 10:00:25;;;;;;;1.60;1.50;;;5.60;99.90;;;;;;5066998;28;20466;-72
2023/01/15 10:03:09;;;;;;;0.70;0.70;;;5.60;99.90;;;;;;5065998;28;20872;-72
2023/01/15 10:05:41;;;;;;;0.80;0.80;;;5.50;99.90;;;;;;5059196;28;20511;-71
2023/01/15 10:08:22;;;;;;;0.73;0.60;;;5.50;99.90;;;;;;5074361;28;20469;-69
2023/01/15 10:10:57;;;;;;;1.63;0.80;;;5.40;99.90;;;;;;5061886;28;20486;-73
2023/01/15 10:13:25;;;;;;;1.33;1.23;;;5.40;99.90;;;;;;5066460;28;20473;-72
2023/01/15 10:15:51;;;;;;;1.50;1.40;;;5.40;99.90;;;;;;5067508;28;20478;-72
2023/01/15 10:18:19;;;;;;;12.00;6.77;;;5.40;99.90;;;;;;5075537;28;20477;-72
2023/01/15 10:20:53;;;;;;;8.20;4.00;;;5.50;99.90;;;;;;5064532;28;20223;-72
2023/01/15 10:23:30;;;;;;;4.03;3.53;;;5.40;99.90;;;;;;5075388;28;20457;-73
2023/01/15 10:26:07;;;;;;;2.13;1.90;;;5.40;99.90;;;;;;5074784;28;20459;-73
2023/01/15 10:29:14;;;;;;;1.80;1.70;;;5.30;99.90;;;;;;5091004;28;20904;-72
2023/01/15 10:31:53;;;;;;;1.47;1.37;;;5.40;99.90;;;;;;5040606;28;20461;-72
2023/01/15 10:35:00;;;;;;;0.60;0.60;;;5.30;99.90;;;;;;5090937;28;20489;-73
2023/01/15 10:37:37;;;;;;;0.50;0.50;;;5.20;99.90;;;;;;5052606;28;20482;-72
2023/01/15 10:40:16;;;;;;;1.60;0.90;;;5.20;99.90;;;;;;5066047;28;20457;-72
2023/01/15 10:42:48;;;;;;;0.63;0.63;;;5.10;99.90;;;;;;5053237;28;20588;-72
2023/01/15 10:45:19;;;;;;;2.20;1.13;;;5.10;99.90;;;;;;5084246;28;20456;-72
2023/01/15 10:47:50;;;;;;;1.30;0.77;;;5.10;99.90;;;;;;5078906;28;20457;-72
2023/01/15 10:50:22;;;;;;;0.53;0.53;;;5.20;99.90;;;;;;5070208;28;20465;-72
2023/01/15 10:53:12;;;;;;;1.07;0.60;;;5.10;99.90;;;;;;5072564;28;20465;-72
2023/01/15 10:55:48;;;;;;;1.37;0.70;;;5.10;99.90;;;;;;5068286;28;20456;-72
2023/01/15 10:58:27;;;;;;;2.70;0.50;;;5.00;99.90;;;;;;5054957;28;20456;-72
2023/01/15 11:01:13;;;;;;;0.93;0.80;;;5.00;99.90;;;;;;5072880;28;20479;-72
2023/01/15 11:03:43;;;;;;;0.83;0.83;;;5.00;99.90;;;;;;5075818;28;20860;-72
2023/01/15 11:06:14;;;;;;;3.03;0.80;;;5.00;99.90;;;;;;5083262;28;20496;-71
2023/01/15 11:08:43;;;;;;;0.70;0.60;;;5.00;99.90;;;;;;5079482;28;20456;-72
2023/01/15 11:19:35;;;;;;;1.13;0.77;;;5.00;99.90;;;;;;5091944;28;20473;-72
2023/01/15 11:20:41;;;;;;;6.63;4.77;;;5.10;99.90;;;;;;5081383;28;20493;-72
2023/01/15 11:23:17;;;;;;;9.30;7.20;;;5.10;99.90;;;;;;5094505;27;20501;-71
2023/01/15 11:25:54;;;;;;;2.40;2.20;;;5.20;99.90;;;;;;5093969;28;20467;-72
2023/01/15 11:28:41;;;;;;;3.03;2.03;;;5.30;99.90;;;;;;5077826;28;20463;-72
2023/01/15 11:31:08;;;;;;;2.47;2.27;;;5.40;99.90;;;;;;5095017;28;21194;-73
2023/01/15 11:33:35;;;;;;;1.67;1.13;;;5.50;99.90;;;;;;5095279;28;20855;-72
2023/01/15 11:36:07;;;;;;;1.50;1.27;;;5.60;99.90;;;;;;5088394;28;21113;-72
2023/01/15 11:38:44;;;;;;;0.73;0.73;;;5.60;99.90;;;;;;5107905;27;20454;-72
2023/01/15 11:52:52;;;;;;;1.73;0.60;;;5.90;99.90;;;;;;5079681;28;20543;-72
2023/01/15 11:55:24;;;;;;;0.57;0.50;;;6.10;99.90;;;;;;5089522;28;20458;-73
2023/01/15 11:57:50;;;;;;;6.33;0.80;;;6.00;99.90;;;;;;5090258;28;20969;-72
2023/01/15 12:00:22;;;;;;;0.60;0.43;;;6.10;99.90;;;;;;5088313;28;20465;-73
2023/01/15 12:02:51;;;;;;;0.70;0.50;;;6.10;99.90;;;;;;5087913;28;20461;-73
2023/01/15 12:05:23;;;;;;;1.80;0.73;;;6.20;99.90;;;;;;5084248;28;20466;-72
2023/01/15 12:07:51;;;;;;;0.80;0.60;;;6.20;99.90;;;;;;5089622;28;20451;-72
2023/01/15 12:13:42;;;;;;;1.77;0.40;;;6.30;99.90;;;;;;5070790;28;20467;-72
2023/01/15 12:16:30;;;;;;;1.47;0.60;;;6.30;99.90;;;;;;5052529;28;20446;-72
2023/01/15 12:19:00;;;;;;;1.10;0.83;;;6.50;99.90;;;;;;5092767;27;20546;-72
2023/01/15 12:21:49;;;;;;;0.80;0.70;;;6.50;99.90;;;;;;5091399;28;20498;-73
2023/01/15 12:24:35;;;;;;;1.53;0.57;;;6.50;99.90;;;;;;5071060;28;20485;-72
2023/01/15 12:27:11;;;;;;;0.50;0.30;;;6.80;99.90;;;;;;5067376;28;20474;-73
2023/01/15 12:29:53;;;;;;;1.67;0.80;;;6.70;99.90;;;;;;5057369;28;20522;-73
2023/01/15 12:32:30;;;;;;;5.10;0.73;;;6.80;99.90;;;;;;5066278;28;20457;-73
2023/01/15 12:35:04;;;;;;;0.80;0.60;;;6.90;99.90;;;;;;5086807;28;20884;-73
2023/01/15 12:37:36;;;;;;;7.07;2.60;;;7.00;99.90;;;;;;5084797;28;20555;-73
2023/01/15 12:40:14;;;;;;;6.90;4.73;;;6.90;99.90;;;;;;5077223;28;20466;-72
2023/01/15 12:45:30;;;;;;;4.40;3.00;;;6.90;99.90;;;;;;5077907;28;20469;-74
2023/01/15 12:48:21;;;;;;;7.93;4.67;;;6.90;99.90;;;;;;5075135;28;20544;-73
2023/01/15 12:50:48;;;;;;;3.40;2.90;;;7.00;99.90;;;;;;5074394;28;20465;-73
2023/01/15 12:53:35;;;;;;;2.00;1.80;;;7.10;99.90;;;;;;5056609;28;20454;-73
2023/01/15 12:56:22;;;;;;;3.33;0.90;;;7.00;99.90;;;;;;5066310;28;20540;-73
2023/01/15 12:59:06;;;;;;;0.80;0.80;;;7.10;99.90;;;;;;5065579;28;20447;-73
2023/01/15 13:01:48;;;;;;;2.43;0.90;;;7.20;99.90;;;;;;5080183;28;20538;-73
2023/01/15 13:04:27;;;;;;;0.67;0.40;;;7.10;99.90;;;;;;5079549;28;21028;-73
2023/01/15 13:07:01;;;;;;;0.70;0.60;;;7.00;99.90;;;;;;5083172;28;20587;-74
2023/01/15 13:09:56;;;;;;;1.53;0.80;;;7.10;99.90;;;;;;5068983;28;20463;-73
2023/01/15 13:12:22;;;;;;;4.20;0.90;;;7.10;99.90;;;;;;5083432;28;20456;-73
2023/01/15 13:14:49;;;;;;;0.40;0.40;;;7.10;99.90;;;;;;5089288;28;20458;-72
2023/01/15 13:17:15;;;;;;;0.80;0.70;;;7.20;99.90;;;;;;5070328;28;20666;-73
2023/01/15 13:20:11;;;;;;;0.83;0.60;;;7.10;99.90;;;;;;5088166;28;20459;-73
2023/01/15 13:22:49;;;;;;;0.50;0.50;;;7.20;99.90;;;;;;5089336;28;20218;-73
2023/01/15 13:25:39;;;;;;;1.10;0.77;;;7.30;99.90;;;;;;5091085;28;20464;-73
2023/01/15 13:28:42;;;;;;;1.90;0.50;;;7.30;99.90;;;;;;5061442;28;20473;-73
2023/01/15 13:31:37;;;;;;;0.90;0.70;;;7.30;99.90;;;;;;5070294;28;20484;-73
2023/01/15 13:34:11;;;;;;;0.50;0.43;;;7.30;99.90;;;;;;5095460;28;20453;-72
2023/01/15 13:36:44;;;;;;;2.50;0.60;;;7.20;99.90;;;;;;5076964;28;20821;-73
2023/01/15 13:39:17;;;;;;;1.27;0.63;;;7.30;99.90;;;;;;5083540;28;20458;-72
2023/01/15 13:44:43;;;;;;;0.80;0.80;;;7.20;99.90;;;;;;5085345;28;20456;-73
2023/01/15 13:47:16;;;;;;;3.63;1.77;;;7.20;99.90;;;;;;5083977;28;20477;-72
2023/01/15 13:49:55;;;;;;;3.70;2.63;;;7.20;99.90;;;;;;5069573;28;20475;-73
2023/01/15 13:52:34;;;;;;;9.13;3.50;;;7.20;99.90;;;;;;5085579;28;20471;-73
2023/01/15 13:55:31;;;;;;;9.70;4.53;;;7.20;99.90;;;;;;5088008;28;20476;-73
2023/01/15 13:57:57;;;;;;;8.20;3.90;;;7.20;99.90;;;;;;5073331;28;21007;-72
2023/01/15 14:00:33;;;;;;;4.87;2.23;;;7.30;99.90;;;;;;5089266;28;20460;-73
2023/01/15 14:03:01;;;;;;;6.70;3.70;;;7.30;99.90;;;;;;5094501;28;20222;-73
2023/01/15 14:05:31;;;;;;;4.87;3.03;;;7.30;99.90;;;;;;5089747;27;20468;-73
2023/01/15 14:08:00;;;;;;;7.10;5.20;;;7.30;99.90;;;;;;5101323;28;20460;-72
2023/01/15 14:10:34;;;;;;;3.50;2.50;;;7.30;99.90;;;;;;5094644;28;20544;-73
2023/01/15 14:13:37;;;;;;;1.50;1.40;;;7.20;99.90;;;;;;5090136;28;20987;-70
2023/01/15 14:16:08;;;;;;;9.93;1.60;;;7.20;99.90;;;;;;5059311;28;20969;-73
2023/01/15 14:18:59;;;;;;;1.90;1.10;;;7.20;99.90;;;;;;5071376;28;20475;-73
2023/01/15 14:21:55;;;;;;;0.90;0.70;;;7.10;99.90;;;;;;5068788;28;20454;-73